sensor_id;sensor_type;location;lat;lon;timestamp;P1;durP1;ratioP1;P2;durP2;ratioP2
11685;SDS011;5899;51.282;6.094;2023-08-17T00:15:37;2.55;;;2.20;;
11685;SDS011;5899;51.282;6.094;2023-08-17T00:36:40;2.33;;;2.13;;
11685;SDS011;5899;51.282;6.094;2023-08-17T00:42:17;3.08;;;2.40;;
11685;SDS011;5899;51.282;6.094;2023-08-17T00:45:09;2.63;;;1.98;;
11685;SDS011;5899;51.282;6.094;2023-08-17T00:53:08;2.83;;;2.40;;
11685;SDS011;5899;51.282;6.094;2023-08-17T01:32:30;2.35;;;2.03;;
11685;SDS011;5899;51.282;6.094;2023-08-17T01:42:02;2.77;;;2.37;;
11685;SDS011;5899;51.282;6.094;2023-08-17T01:44:43;3.78;;;2.40;;
11685;SDS011;5899;51.282;6.094;2023-08-17T01:47:28;3.22;;;2.72;;
11685;SDS011;5899;51.282;6.094;2023-08-17T01:50:29;3.08;;;2.47;;
11685;SDS011;5899;51.282;6.094;2023-08-17T01:58:44;3.45;;;2.67;;
11685;SDS011;5899;51.282;6.094;2023-08-17T01:59:46;5.32;;;3.20;;
11685;SDS011;5899;51.282;6.094;2023-08-17T02:02:29;4.28;;;2.83;;
11685;SDS011;5899;51.282;6.094;2023-08-17T02:05:00;3.50;;;2.80;;
11685;SDS011;5899;51.282;6.094;2023-08-17T02:07:53;4.10;;;2.88;;
11685;SDS011;5899;51.282;6.094;2023-08-17T02:10:48;4.40;;;2.83;;
11685;SDS011;5899;51.282;6.094;2023-08-17T02:13:34;4.43;;;2.88;;
11685;SDS011;5899;51.282;6.094;2023-08-17T02:16:26;3.05;;;2.75;;
11685;SDS011;5899;51.282;6.094;2023-08-17T02:19:10;4.45;;;2.60;;
11685;SDS011;5899;51.282;6.094;2023-08-17T02:39:38;2.92;;;2.63;;
11685;SDS011;5899;51.282;6.094;2023-08-17T02:42:11;3.15;;;2.85;;
11685;SDS011;5899;51.282;6.094;2023-08-17T02:48:04;4.60;;;2.70;;
11685;SDS011;5899;51.282;6.094;2023-08-17T03:20:17;5.00;;;2.75;;
11685;SDS011;5899;51.282;6.094;2023-08-17T03:26:05;4.30;;;2.45;;
11685;SDS011;5899;51.282;6.094;2023-08-17T03:28:48;3.40;;;2.57;;
11685;SDS011;5899;51.282;6.094;2023-08-17T03:31:30;2.70;;;2.50;;
11685;SDS011;5899;51.282;6.094;2023-08-17T03:49:11;2.42;;;2.22;;
11685;SDS011;5899;51.282;6.094;2023-08-17T03:52:06;3.03;;;2.50;;
11685;SDS011;5899;51.282;6.094;2023-08-17T03:54:47;2.63;;;2.40;;
11685;SDS011;5899;51.282;6.094;2023-08-17T04:00:42;2.97;;;2.30;;
11685;SDS011;5899;51.282;6.094;2023-08-17T04:03:28;3.88;;;2.83;;
11685;SDS011;5899;51.282;6.094;2023-08-17T04:09:47;3.03;;;2.60;;
11685;SDS011;5899;51.282;6.094;2023-08-17T04:12:36;2.63;;;2.42;;
11685;SDS011;5899;51.282;6.094;2023-08-17T04:20:11;3.60;;;2.85;;
11685;SDS011;5899;51.282;6.094;2023-08-17T04:21:41;3.60;;;2.78;;
11685;SDS011;5899;51.282;6.094;2023-08-17T04:42:25;3.83;;;2.95;;
11685;SDS011;5899;51.282;6.094;2023-08-17T04:45:06;3.85;;;2.95;;
11685;SDS011;5899;51.282;6.094;2023-08-17T04:50:55;3.43;;;3.10;;
11685;SDS011;5899;51.282;6.094;2023-08-17T04:53:52;4.80;;;3.20;;
11685;SDS011;5899;51.282;6.094;2023-08-17T04:58:33;3.72;;;3.20;;
11685;SDS011;5899;51.282;6.094;2023-08-17T05:05:12;6.20;;;3.60;;
11685;SDS011;5899;51.282;6.094;2023-08-17T05:08:12;4.27;;;3.30;;
11685;SDS011;5899;51.282;6.094;2023-08-17T05:13:03;5.72;;;3.30;;
11685;SDS011;5899;51.282;6.094;2023-08-17T05:14:01;4.00;;;3.10;;
11685;SDS011;5899;51.282;6.094;2023-08-17T05:17:16;4.57;;;3.22;;
11685;SDS011;5899;51.282;6.094;2023-08-17T05:20:05;4.80;;;3.10;;
11685;SDS011;5899;51.282;6.094;2023-08-17T05:25:38;4.25;;;3.22;;
11685;SDS011;5899;51.282;6.094;2023-08-17T05:31:18;3.78;;;3.45;;
11685;SDS011;5899;51.282;6.094;2023-08-17T05:34:37;3.67;;;2.92;;
11685;SDS011;5899;51.282;6.094;2023-08-17T05:37:25;6.80;;;3.50;;
11685;SDS011;5899;51.282;6.094;2023-08-17T05:40:07;3.57;;;3.13;;
11685;SDS011;5899;51.282;6.094;2023-08-17T05:46:04;4.13;;;3.17;;
11685;SDS011;5899;51.282;6.094;2023-08-17T05:55:30;5.32;;;3.42;;
11685;SDS011;5899;51.282;6.094;2023-08-17T06:24:52;4.90;;;3.95;;
11685;SDS011;5899;51.282;6.094;2023-08-17T06:27:48;6.18;;;3.75;;
11685;SDS011;5899;51.282;6.094;2023-08-17T06:31:08;4.22;;;3.83;;
11685;SDS011;5899;51.282;6.094;2023-08-17T06:36:59;4.95;;;3.80;;
11685;SDS011;5899;51.282;6.094;2023-08-17T06:43:02;5.28;;;4.03;;
11685;SDS011;5899;51.282;6.094;2023-08-17T06:45:41;6.53;;;4.18;;
11685;SDS011;5899;51.282;6.094;2023-08-17T06:48:32;5.50;;;3.77;;
11685;SDS011;5899;51.282;6.094;2023-08-17T07:01:04;7.10;;;4.63;;
11685;SDS011;5899;51.282;6.094;2023-08-17T07:03:56;5.82;;;5.10;;
11685;SDS011;5899;51.282;6.094;2023-08-17T07:07:01;7.60;;;5.90;;
11685;SDS011;5899;51.282;6.094;2023-08-17T08:00:49;13.05;;;10.48;;
11685;SDS011;5899;51.282;6.094;2023-08-17T08:05:57;15.13;;;11.98;;
11685;SDS011;5899;51.282;6.094;2023-08-17T08:08:25;16.77;;;11.85;;
11685;SDS011;5899;51.282;6.094;2023-08-17T08:11:06;17.00;;;13.20;;
11685;SDS011;5899;51.282;6.094;2023-08-17T08:13:35;15.35;;;12.68;;
11685;SDS011;5899;51.282;6.094;2023-08-17T08:16:07;18.40;;;13.15;;
11685;SDS011;5899;51.282;6.094;2023-08-17T08:18:36;16.20;;;13.25;;
11685;SDS011;5899;51.282;6.094;2023-08-17T08:21:17;14.10;;;12.60;;
11685;SDS011;5899;51.282;6.094;2023-08-17T08:23:45;15.05;;;12.63;;
11685;SDS011;5899;51.282;6.094;2023-08-17T08:26:12;17.33;;;12.47;;
11685;SDS011;5899;51.282;6.094;2023-08-17T08:28:47;19.63;;;15.27;;
11685;SDS011;5899;51.282;6.094;2023-08-17T08:51:46;22.73;;;15.07;;
11685;SDS011;5899;51.282;6.094;2023-08-17T08:57:50;17.02;;;11.77;;
11685;SDS011;5899;51.282;6.094;2023-08-17T09:03:37;15.07;;;11.37;;
11685;SDS011;5899;51.282;6.094;2023-08-17T09:07:40;13.32;;;9.60;;
11685;SDS011;5899;51.282;6.094;2023-08-17T10:29:53;20.20;;;15.50;;
11685;SDS011;5899;51.282;6.094;2023-08-17T10:32:39;22.42;;;15.18;;
11685;SDS011;5899;51.282;6.094;2023-08-17T10:39:31;15.77;;;11.82;;
11685;SDS011;5899;51.282;6.094;2023-08-17T10:41:45;14.32;;;10.00;;
11685;SDS011;5899;51.282;6.094;2023-08-17T10:53:50;16.00;;;12.02;;
11685;SDS011;5899;51.282;6.094;2023-08-17T10:59:51;17.40;;;10.32;;
11685;SDS011;5899;51.282;6.094;2023-08-17T11:05:01;14.32;;;10.23;;
11685;SDS011;5899;51.282;6.094;2023-08-17T11:08:58;12.02;;;9.82;;
11685;SDS011;5899;51.282;6.094;2023-08-17T11:11:34;11.63;;;9.20;;
11685;SDS011;5899;51.282;6.094;2023-08-17T11:14:35;13.57;;;8.93;;
11685;SDS011;5899;51.282;6.094;2023-08-17T11:17:02;12.30;;;8.30;;
11685;SDS011;5899;51.282;6.094;2023-08-17T11:19:34;13.77;;;8.95;;
11685;SDS011;5899;51.282;6.094;2023-08-17T11:22:03;14.68;;;10.48;;
11685;SDS011;5899;51.282;6.094;2023-08-17T11:24:38;12.55;;;9.23;;
11685;SDS011;5899;51.282;6.094;2023-08-17T11:27:07;12.23;;;9.43;;
11685;SDS011;5899;51.282;6.094;2023-08-17T11:29:37;14.55;;;10.77;;
11685;SDS011;5899;51.282;6.094;2023-08-17T11:32:08;16.17;;;10.00;;
11685;SDS011;5899;51.282;6.094;2023-08-17T11:34:36;13.18;;;9.77;;
11685;SDS011;5899;51.282;6.094;2023-08-17T11:37:06;15.97;;;11.77;;
11685;SDS011;5899;51.282;6.094;2023-08-17T11:39:38;21.00;;;13.50;;
11685;SDS011;5899;51.282;6.094;2023-08-17T11:42:08;17.98;;;12.02;;
11685;SDS011;5899;51.282;6.094;2023-08-17T11:44:34;17.35;;;11.55;;
11685;SDS011;5899;51.282;6.094;2023-08-17T11:47:01;15.60;;;10.07;;
11685;SDS011;5899;51.282;6.094;2023-08-17T11:49:31;15.93;;;10.80;;
11685;SDS011;5899;51.282;6.094;2023-08-17T11:52:02;17.70;;;10.98;;
11685;SDS011;5899;51.282;6.094;2023-08-17T11:54:30;14.75;;;10.85;;
11685;SDS011;5899;51.282;6.094;2023-08-17T11:57:02;18.30;;;11.68;;
11685;SDS011;5899;51.282;6.094;2023-08-17T11:59:34;17.73;;;11.83;;
11685;SDS011;5899;51.282;6.094;2023-08-17T12:02:01;18.23;;;13.27;;
11685;SDS011;5899;51.282;6.094;2023-08-17T12:04:29;17.57;;;13.40;;
11685;SDS011;5899;51.282;6.094;2023-08-17T12:07:10;19.45;;;13.05;;
11685;SDS011;5899;51.282;6.094;2023-08-17T12:09:41;18.58;;;13.15;;
11685;SDS011;5899;51.282;6.094;2023-08-17T12:12:12;19.58;;;14.25;;
11685;SDS011;5899;51.282;6.094;2023-08-17T12:14:43;19.08;;;14.52;;
11685;SDS011;5899;51.282;6.094;2023-08-17T12:17:13;19.67;;;14.77;;
11685;SDS011;5899;51.282;6.094;2023-08-17T12:19:43;25.48;;;16.77;;
11685;SDS011;5899;51.282;6.094;2023-08-17T12:22:10;24.88;;;17.95;;
11685;SDS011;5899;51.282;6.094;2023-08-17T12:24:39;22.33;;;17.02;;
11685;SDS011;5899;51.282;6.094;2023-08-17T12:27:12;25.83;;;17.67;;
11685;SDS011;5899;51.282;6.094;2023-08-17T12:29:58;25.05;;;18.00;;
11685;SDS011;5899;51.282;6.094;2023-08-17T12:32:25;27.40;;;18.10;;
11685;SDS011;5899;51.282;6.094;2023-08-17T12:35:03;27.73;;;18.73;;
11685;SDS011;5899;51.282;6.094;2023-08-17T12:37:32;28.45;;;19.48;;
11685;SDS011;5899;51.282;6.094;2023-08-17T12:40:02;27.48;;;17.77;;
11685;SDS011;5899;51.282;6.094;2023-08-17T12:42:30;26.63;;;19.00;;
11685;SDS011;5899;51.282;6.094;2023-08-17T12:44:58;27.42;;;18.08;;
11685;SDS011;5899;51.282;6.094;2023-08-17T12:47:26;29.65;;;18.80;;
11685;SDS011;5899;51.282;6.094;2023-08-17T12:49:54;25.33;;;18.23;;
11685;SDS011;5899;51.282;6.094;2023-08-17T12:52:39;26.88;;;17.90;;
11685;SDS011;5899;51.282;6.094;2023-08-17T12:55:08;28.55;;;19.45;;
11685;SDS011;5899;51.282;6.094;2023-08-17T12:57:35;24.65;;;18.05;;
11685;SDS011;5899;51.282;6.094;2023-08-17T13:00:14;26.52;;;19.33;;
11685;SDS011;5899;51.282;6.094;2023-08-17T13:02:47;23.42;;;16.88;;
11685;SDS011;5899;51.282;6.094;2023-08-17T13:05:22;21.90;;;15.95;;
11685;SDS011;5899;51.282;6.094;2023-08-17T13:07:53;29.90;;;21.55;;
11685;SDS011;5899;51.282;6.094;2023-08-17T13:10:24;30.08;;;20.88;;
11685;SDS011;5899;51.282;6.094;2023-08-17T13:13:03;27.83;;;20.42;;
11685;SDS011;5899;51.282;6.094;2023-08-17T13:18:17;26.33;;;18.83;;
11685;SDS011;5899;51.282;6.094;2023-08-17T13:20:55;19.88;;;16.25;;
11685;SDS011;5899;51.282;6.094;2023-08-17T13:23:28;21.10;;;14.83;;
11685;SDS011;5899;51.282;6.094;2023-08-17T13:25:55;19.35;;;15.07;;
11685;SDS011;5899;51.282;6.094;2023-08-17T13:28:23;21.42;;;15.00;;
11685;SDS011;5899;51.282;6.094;2023-08-17T13:30:55;18.25;;;14.63;;
11685;SDS011;5899;51.282;6.094;2023-08-17T13:33:24;20.23;;;15.02;;
11685;SDS011;5899;51.282;6.094;2023-08-17T13:35:56;20.75;;;15.48;;
11685;SDS011;5899;51.282;6.094;2023-08-17T13:38:34;19.27;;;14.80;;
11685;SDS011;5899;51.282;6.094;2023-08-17T13:41:02;19.95;;;14.63;;
11685;SDS011;5899;51.282;6.094;2023-08-17T13:43:29;16.55;;;14.30;;
11685;SDS011;5899;51.282;6.094;2023-08-17T13:45:58;17.15;;;14.88;;
11685;SDS011;5899;51.282;6.094;2023-08-17T13:48:57;17.90;;;14.68;;
11685;SDS011;5899;51.282;6.094;2023-08-17T13:51:29;17.93;;;15.07;;
11685;SDS011;5899;51.282;6.094;2023-08-17T13:53:55;19.25;;;16.48;;
11685;SDS011;5899;51.282;6.094;2023-08-17T13:56:28;19.83;;;15.90;;
11685;SDS011;5899;51.282;6.094;2023-08-17T13:59:05;21.98;;;15.98;;
11685;SDS011;5899;51.282;6.094;2023-08-17T14:01:44;21.70;;;16.13;;
11685;SDS011;5899;51.282;6.094;2023-08-17T14:10:06;24.63;;;16.67;;
11685;SDS011;5899;51.282;6.094;2023-08-17T14:12:47;22.83;;;18.23;;
11685;SDS011;5899;51.282;6.094;2023-08-17T14:15:17;21.13;;;16.27;;
11685;SDS011;5899;51.282;6.094;2023-08-17T14:17:49;19.48;;;15.68;;
11685;SDS011;5899;51.282;6.094;2023-08-17T14:20:19;21.83;;;15.10;;
11685;SDS011;5899;51.282;6.094;2023-08-17T14:22:48;21.70;;;17.38;;
11685;SDS011;5899;51.282;6.094;2023-08-17T14:25:16;23.48;;;16.73;;
11685;SDS011;5899;51.282;6.094;2023-08-17T14:27:53;24.63;;;18.67;;
11685;SDS011;5899;51.282;6.094;2023-08-17T14:30:26;26.92;;;18.00;;
11685;SDS011;5899;51.282;6.094;2023-08-17T14:33:13;23.88;;;18.25;;
11685;SDS011;5899;51.282;6.094;2023-08-17T14:36:03;22.58;;;17.13;;
11685;SDS011;5899;51.282;6.094;2023-08-17T14:38:32;23.30;;;17.95;;
11685;SDS011;5899;51.282;6.094;2023-08-17T14:44:07;26.43;;;18.10;;
11685;SDS011;5899;51.282;6.094;2023-08-17T14:46:43;26.50;;;18.58;;
11685;SDS011;5899;51.282;6.094;2023-08-17T14:49:09;26.23;;;18.33;;
11685;SDS011;5899;51.282;6.094;2023-08-17T14:51:48;26.55;;;19.27;;
11685;SDS011;5899;51.282;6.094;2023-08-17T14:54:15;28.83;;;19.27;;
11685;SDS011;5899;51.282;6.094;2023-08-17T14:56:46;29.65;;;19.05;;
11685;SDS011;5899;51.282;6.094;2023-08-17T14:59:17;27.23;;;20.05;;
11685;SDS011;5899;51.282;6.094;2023-08-17T15:01:56;27.10;;;20.73;;
11685;SDS011;5899;51.282;6.094;2023-08-17T15:04:28;27.67;;;19.55;;
11685;SDS011;5899;51.282;6.094;2023-08-17T15:07:23;27.77;;;19.00;;
11685;SDS011;5899;51.282;6.094;2023-08-17T15:09:49;29.52;;;19.38;;
11685;SDS011;5899;51.282;6.094;2023-08-17T15:12:19;28.35;;;20.25;;
11685;SDS011;5899;51.282;6.094;2023-08-17T15:15:00;27.90;;;20.05;;
11685;SDS011;5899;51.282;6.094;2023-08-17T15:17:33;28.20;;;19.70;;
11685;SDS011;5899;51.282;6.094;2023-08-17T15:20:05;27.90;;;20.33;;
11685;SDS011;5899;51.282;6.094;2023-08-17T15:22:38;21.52;;;17.20;;
11685;SDS011;5899;51.282;6.094;2023-08-17T15:25:08;19.88;;;13.77;;
11685;SDS011;5899;51.282;6.094;2023-08-17T15:27:42;17.83;;;12.68;;
11685;SDS011;5899;51.282;6.094;2023-08-17T15:30:21;16.45;;;12.07;;
11685;SDS011;5899;51.282;6.094;2023-08-17T15:32:54;18.67;;;12.60;;
11685;SDS011;5899;51.282;6.094;2023-08-17T15:35:22;21.83;;;13.50;;
11685;SDS011;5899;51.282;6.094;2023-08-17T15:37:54;20.88;;;14.15;;
11685;SDS011;5899;51.282;6.094;2023-08-17T15:40:24;20.95;;;13.25;;
11685;SDS011;5899;51.282;6.094;2023-08-17T15:42:54;20.30;;;14.10;;
11685;SDS011;5899;51.282;6.094;2023-08-17T15:45:35;18.48;;;12.82;;
11685;SDS011;5899;51.282;6.094;2023-08-17T15:48:16;17.23;;;12.27;;
11685;SDS011;5899;51.282;6.094;2023-08-17T15:50:57;20.03;;;13.87;;
11685;SDS011;5899;51.282;6.094;2023-08-17T15:53:30;20.42;;;14.23;;
11685;SDS011;5899;51.282;6.094;2023-08-17T15:56:01;18.45;;;13.68;;
11685;SDS011;5899;51.282;6.094;2023-08-17T15:58:31;22.25;;;14.80;;
11685;SDS011;5899;51.282;6.094;2023-08-17T16:01:08;24.13;;;16.08;;
11685;SDS011;5899;51.282;6.094;2023-08-17T16:03:50;25.27;;;16.75;;
11685;SDS011;5899;51.282;6.094;2023-08-17T16:06:19;25.40;;;15.35;;
11685;SDS011;5899;51.282;6.094;2023-08-17T16:08:49;26.48;;;16.33;;
11685;SDS011;5899;51.282;6.094;2023-08-17T16:11:20;26.83;;;16.13;;
11685;SDS011;5899;51.282;6.094;2023-08-17T16:13:46;22.38;;;15.32;;
11685;SDS011;5899;51.282;6.094;2023-08-17T16:16:29;25.10;;;15.65;;
11685;SDS011;5899;51.282;6.094;2023-08-17T16:19:04;22.38;;;15.10;;
11685;SDS011;5899;51.282;6.094;2023-08-17T16:21:39;26.98;;;16.75;;
11685;SDS011;5899;51.282;6.094;2023-08-17T16:24:06;21.27;;;14.77;;
11685;SDS011;5899;51.282;6.094;2023-08-17T16:26:37;21.50;;;15.27;;
11685;SDS011;5899;51.282;6.094;2023-08-17T16:29:10;21.83;;;15.27;;
11685;SDS011;5899;51.282;6.094;2023-08-17T16:31:42;19.30;;;14.93;;
11685;SDS011;5899;51.282;6.094;2023-08-17T16:34:08;21.65;;;14.85;;
11685;SDS011;5899;51.282;6.094;2023-08-17T16:36:37;22.77;;;15.25;;
11685;SDS011;5899;51.282;6.094;2023-08-17T16:39:06;23.83;;;15.73;;
11685;SDS011;5899;51.282;6.094;2023-08-17T16:41:33;21.80;;;15.35;;
11685;SDS011;5899;51.282;6.094;2023-08-17T16:44:08;26.20;;;15.32;;
11685;SDS011;5899;51.282;6.094;2023-08-17T16:53:13;22.20;;;14.37;;
11685;SDS011;5899;51.282;6.094;2023-08-17T17:01:52;19.42;;;12.73;;
11685;SDS011;5899;51.282;6.094;2023-08-17T17:07:53;18.95;;;12.85;;
11685;SDS011;5899;51.282;6.094;2023-08-17T17:13:52;20.33;;;13.43;;
11685;SDS011;5899;51.282;6.094;2023-08-17T17:19:51;17.33;;;12.38;;
11685;SDS011;5899;51.282;6.094;2023-08-17T17:22:48;16.52;;;11.88;;
11685;SDS011;5899;51.282;6.094;2023-08-17T18:04:51;16.52;;;11.35;;
11685;SDS011;5899;51.282;6.094;2023-08-17T19:17:28;14.52;;;10.32;;
11685;SDS011;5899;51.282;6.094;2023-08-17T19:25:47;13.55;;;9.95;;
11685;SDS011;5899;51.282;6.094;2023-08-17T19:30:30;14.45;;;10.82;;
11685;SDS011;5899;51.282;6.094;2023-08-17T19:38:39;11.02;;;9.55;;
11685;SDS011;5899;51.282;6.094;2023-08-17T19:41:20;13.93;;;10.30;;
11685;SDS011;5899;51.282;6.094;2023-08-17T19:44:15;12.40;;;9.77;;
11685;SDS011;5899;51.282;6.094;2023-08-17T19:47:07;14.13;;;10.25;;
11685;SDS011;5899;51.282;6.094;2023-08-17T19:53:33;12.52;;;10.13;;
11685;SDS011;5899;51.282;6.094;2023-08-17T19:56:25;11.02;;;9.80;;
11685;SDS011;5899;51.282;6.094;2023-08-17T19:59:17;12.75;;;10.63;;
11685;SDS011;5899;51.282;6.094;2023-08-17T20:01:45;12.82;;;10.30;;
11685;SDS011;5899;51.282;6.094;2023-08-17T20:04:49;12.25;;;10.07;;
11685;SDS011;5899;51.282;6.094;2023-08-17T20:07:19;10.30;;;9.18;;
11685;SDS011;5899;51.282;6.094;2023-08-17T20:10:05;12.73;;;10.25;;
11685;SDS011;5899;51.282;6.094;2023-08-17T20:15:37;13.77;;;10.75;;
11685;SDS011;5899;51.282;6.094;2023-08-17T20:18:40;12.73;;;10.77;;
11685;SDS011;5899;51.282;6.094;2023-08-17T20:21:10;12.45;;;10.50;;
11685;SDS011;5899;51.282;6.094;2023-08-17T20:23:55;12.50;;;9.98;;
11685;SDS011;5899;51.282;6.094;2023-08-17T20:26:59;12.05;;;9.80;;
11685;SDS011;5899;51.282;6.094;2023-08-17T20:30:00;12.97;;;10.07;;
11685;SDS011;5899;51.282;6.094;2023-08-17T20:38:30;13.68;;;10.35;;
11685;SDS011;5899;51.282;6.094;2023-08-17T20:41:27;11.60;;;10.07;;
11685;SDS011;5899;51.282;6.094;2023-08-17T20:44:12;11.95;;;9.90;;
11685;SDS011;5899;51.282;6.094;2023-08-17T20:46:52;13.75;;;10.02;;
11685;SDS011;5899;51.282;6.094;2023-08-17T20:49:33;11.93;;;9.80;;
11685;SDS011;5899;51.282;6.094;2023-08-17T20:52:12;10.80;;;9.55;;
11685;SDS011;5899;51.282;6.094;2023-08-17T21:03:47;12.88;;;9.85;;
11685;SDS011;5899;51.282;6.094;2023-08-17T21:06:24;13.65;;;10.57;;
11685;SDS011;5899;51.282;6.094;2023-08-17T21:09:10;13.75;;;10.55;;
11685;SDS011;5899;51.282;6.094;2023-08-17T21:11:53;13.95;;;11.38;;
11685;SDS011;5899;51.282;6.094;2023-08-17T21:14:30;15.25;;;11.23;;
11685;SDS011;5899;51.282;6.094;2023-08-17T21:17:18;15.38;;;10.75;;
11685;SDS011;5899;51.282;6.094;2023-08-17T21:23:00;13.20;;;10.73;;
11685;SDS011;5899;51.282;6.094;2023-08-17T21:26:00;15.05;;;11.43;;
11685;SDS011;5899;51.282;6.094;2023-08-17T21:28:40;14.52;;;11.13;;
11685;SDS011;5899;51.282;6.094;2023-08-17T21:37:47;13.65;;;10.88;;
11685;SDS011;5899;51.282;6.094;2023-08-17T21:46:46;14.23;;;11.87;;
11685;SDS011;5899;51.282;6.094;2023-08-17T21:52:45;16.23;;;11.63;;
11685;SDS011;5899;51.282;6.094;2023-08-17T21:55:34;15.77;;;12.35;;
11685;SDS011;5899;51.282;6.094;2023-08-17T21:58:47;15.70;;;12.17;;
11685;SDS011;5899;51.282;6.094;2023-08-17T22:01:08;15.05;;;12.10;;
11685;SDS011;5899;51.282;6.094;2023-08-17T22:04:12;13.77;;;11.88;;
11685;SDS011;5899;51.282;6.094;2023-08-17T22:10:04;16.35;;;12.38;;
11685;SDS011;5899;51.282;6.094;2023-08-17T22:12:54;14.73;;;12.38;;
11685;SDS011;5899;51.282;6.094;2023-08-17T22:19:18;14.43;;;12.27;;
11685;SDS011;5899;51.282;6.094;2023-08-17T22:28:05;16.35;;;12.30;;
11685;SDS011;5899;51.282;6.094;2023-08-17T22:30:49;14.32;;;11.93;;
11685;SDS011;5899;51.282;6.094;2023-08-17T22:39:27;14.88;;;12.68;;
11685;SDS011;5899;51.282;6.094;2023-08-17T22:42:19;16.25;;;12.27;;
11685;SDS011;5899;51.282;6.094;2023-08-17T22:51:00;15.60;;;12.45;;
11685;SDS011;5899;51.282;6.094;2023-08-17T22:57:00;17.67;;;13.57;;
11685;SDS011;5899;51.282;6.094;2023-08-17T23:03:38;15.60;;;12.25;;
11685;SDS011;5899;51.282;6.094;2023-08-17T23:05:54;15.27;;;12.23;;
11685;SDS011;5899;51.282;6.094;2023-08-17T23:14:22;15.45;;;12.88;;
11685;SDS011;5899;51.282;6.094;2023-08-17T23:17:00;17.90;;;13.18;;
11685;SDS011;5899;51.282;6.094;2023-08-17T23:25:24;17.98;;;13.38;;
11685;SDS011;5899;51.282;6.094;2023-08-17T23:28:35;18.38;;;13.35;;
11685;SDS011;5899;51.282;6.094;2023-08-17T23:31:13;18.83;;;13.55;;
11685;SDS011;5899;51.282;6.094;2023-08-17T23:34:51;17.35;;;13.82;;
11685;SDS011;5899;51.282;6.094;2023-08-17T23:37:56;18.23;;;12.82;;
11685;SDS011;5899;51.282;6.094;2023-08-17T23:40:11;18.50;;;12.90;;
11685;SDS011;5899;51.282;6.094;2023-08-17T23:42:47;18.85;;;13.57;;
11685;SDS011;5899;51.282;6.094;2023-08-17T23:45:32;18.85;;;13.02;;
11685;SDS011;5899;51.282;6.094;2023-08-17T23:51:09;16.93;;;13.17;;
11685;SDS011;5899;51.282;6.094;2023-08-17T23:53:49;20.27;;;13.63;;
11685;SDS011;5899;51.282;6.094;2023-08-17T23:56:41;22.48;;;13.82;;
11685;SDS011;5899;51.282;6.094;2023-08-17T23:59:20;22.92;;;14.25;;
